createdAt,value
2019-05-15T00:02:10.815Z,11.72
2019-05-15T00:04:41.485Z,11.67
2019-05-15T00:07:10.993Z,11.64
2019-05-15T00:09:41.902Z,11.62
2019-05-15T00:12:12.446Z,11.57
2019-05-15T00:14:41.929Z,11.51
2019-05-15T00:17:13.040Z,11.49
2019-05-15T00:19:42.537Z,11.41
2019-05-15T00:22:12.025Z,11.33
2019-05-15T00:24:41.525Z,11.36
2019-05-15T00:27:11.010Z,11.35
2019-05-15T00:29:40.507Z,11.34
2019-05-15T00:32:10.020Z,11.31
2019-05-15T00:34:39.524Z,11.30
2019-05-15T00:37:09.801Z,11.23
2019-05-15T00:39:39.295Z,11.25
2019-05-15T00:42:09.750Z,11.24
2019-05-15T00:44:39.266Z,11.21
2019-05-15T00:47:10.532Z,11.25
2019-05-15T00:49:40.097Z,11.21
2019-05-15T00:52:12.134Z,11.14
2019-05-15T00:54:40.870Z,11.15
2019-05-15T00:57:10.350Z,11.07
2019-05-15T00:59:39.845Z,11.04
2019-05-15T01:02:09.341Z,10.99
2019-05-15T01:04:39.045Z,10.92
2019-05-15T01:07:08.572Z,10.89
2019-05-15T01:09:39.025Z,10.85
2019-05-15T01:12:09.108Z,10.75
2019-05-15T01:14:38.786Z,10.72
2019-05-15T01:17:09.140Z,10.65
2019-05-15T01:19:38.691Z,10.61
2019-05-15T01:22:08.836Z,10.59
2019-05-15T01:24:38.892Z,10.49
2019-05-15T01:27:09.105Z,10.49
2019-05-15T01:29:44.808Z,10.50
2019-05-15T01:32:10.830Z,10.51
2019-05-15T01:34:40.316Z,10.45
2019-05-15T01:37:09.806Z,10.51
2019-05-15T01:39:40.266Z,10.50
2019-05-15T01:42:09.768Z,10.45
2019-05-15T01:44:39.290Z,10.41
2019-05-15T01:47:08.807Z,10.37
2019-05-15T01:49:38.543Z,10.28
2019-05-15T01:52:08.170Z,10.13
2019-05-15T01:54:38.385Z,9.97
2019-05-15T01:57:09.310Z,9.91
2019-05-15T01:59:52.691Z,9.90
2019-05-15T02:02:10.165Z,9.97
2019-05-15T02:04:39.649Z,10.03
2019-05-15T02:07:09.140Z,10.04
2019-05-15T02:09:38.695Z,10.04
2019-05-15T02:12:08.721Z,10.06
2019-05-15T02:14:39.157Z,10.08
2019-05-15T02:17:08.831Z,10.03
2019-05-15T02:19:39.163Z,10.00
2019-05-15T02:22:08.809Z,9.99
2019-05-15T02:24:39.040Z,10.01
2019-05-15T02:27:09.075Z,9.87
2019-05-15T02:29:38.716Z,9.72
2019-05-15T02:32:10.209Z,9.75
2019-05-15T02:34:39.816Z,9.75
2019-05-15T02:37:09.471Z,9.28
2019-05-15T02:39:39.179Z,9.61
2019-05-15T02:42:09.858Z,9.46
2019-05-15T02:44:40.276Z,9.49
2019-05-15T02:47:09.875Z,9.49
2019-05-15T02:49:39.764Z,9.52
2019-05-15T02:52:10.009Z,9.56
2019-05-15T02:54:40.225Z,9.52
2019-05-15T02:57:10.070Z,9.40
2019-05-15T02:59:39.960Z,9.32
2019-05-15T03:02:10.362Z,9.31
2019-05-15T03:04:40.317Z,9.26
2019-05-15T03:07:09.953Z,9.31
2019-05-15T03:09:40.346Z,9.25
2019-05-15T03:12:09.851Z,9.23
2019-05-15T03:14:40.047Z,9.23
2019-05-15T03:17:09.991Z,9.20
2019-05-15T03:19:39.683Z,9.12
2019-05-15T03:22:09.972Z,9.17
2019-05-15T03:24:39.915Z,9.15
2019-05-15T03:27:10.477Z,9.14
2019-05-15T03:29:40.570Z,9.05
2019-05-15T03:32:25.231Z,9.04
2019-05-15T03:34:47.553Z,9.02
2019-05-15T03:37:13.154Z,8.96
2019-05-15T03:39:46.507Z,8.90
2019-05-15T03:42:14.180Z,8.79
2019-05-15T03:44:43.686Z,8.74
2019-05-15T03:47:13.287Z,8.70
2019-05-15T03:49:42.774Z,8.54
2019-05-15T03:52:12.276Z,8.72
2019-05-15T03:54:41.768Z,8.91
2019-05-15T03:57:11.264Z,8.74
2019-05-15T03:59:40.748Z,8.58
2019-05-15T04:02:11.219Z,8.58
2019-05-15T04:04:40.710Z,8.65
2019-05-15T04:07:10.337Z,8.71
2019-05-15T04:09:40.901Z,8.79
2019-05-15T04:12:10.405Z,8.89
2019-05-15T04:14:39.964Z,8.95
2019-05-15T04:17:09.548Z,9.02
2019-05-15T04:19:40.012Z,9.02
2019-05-15T04:22:09.642Z,9.02
2019-05-15T04:24:40.280Z,9.05
2019-05-15T04:27:10.837Z,9.04
2019-05-15T04:29:40.572Z,9.06
2019-05-15T04:32:10.752Z,9.12
2019-05-15T04:34:40.632Z,9.18
2019-05-15T04:37:10.111Z,9.32
2019-05-15T04:39:40.152Z,9.39
2019-05-15T04:42:09.727Z,9.45
2019-05-15T04:44:39.666Z,9.51
2019-05-15T04:47:09.857Z,9.54
2019-05-15T04:49:40.435Z,9.58
2019-05-15T04:52:10.539Z,9.72
2019-05-15T04:54:40.533Z,9.78
2019-05-15T04:57:10.155Z,9.80
2019-05-15T04:59:39.631Z,9.89
2019-05-15T05:02:17.405Z,9.98
2019-05-15T05:04:40.351Z,9.94
2019-05-15T05:07:09.909Z,9.91
2019-05-15T05:09:39.401Z,9.88
2019-05-15T05:12:08.903Z,9.91
2019-05-15T05:14:39.122Z,9.90
2019-05-15T05:17:09.458Z,9.85
2019-05-15T05:19:40.227Z,9.83
2019-05-15T05:22:10.787Z,9.87
2019-05-15T05:24:40.309Z,9.96
2019-05-15T05:27:09.831Z,10.02
2019-05-15T05:29:39.400Z,10.00
2019-05-15T05:32:09.307Z,9.88
2019-05-15T05:34:39.271Z,9.91
2019-05-15T05:37:08.755Z,9.88
2019-05-15T05:39:39.477Z,10.01
2019-05-15T05:42:09.142Z,10.20
2019-05-15T05:44:42.464Z,10.23
2019-05-15T05:47:10.813Z,10.30
2019-05-15T05:49:40.306Z,10.43
2019-05-15T05:52:09.816Z,10.31
2019-05-15T05:54:39.330Z,10.56
2019-05-15T05:57:09.191Z,10.91
2019-05-15T05:59:38.863Z,10.95
2019-05-15T06:02:08.461Z,11.14
2019-05-15T06:04:38.497Z,11.23
2019-05-15T06:07:13.779Z,11.07
2019-05-15T06:09:39.278Z,11.08
2019-05-15T06:12:08.777Z,11.40
2019-05-15T06:14:38.278Z,11.53
2019-05-15T06:17:08.417Z,11.79
2019-05-15T06:19:38.630Z,11.76
2019-05-15T06:22:08.774Z,11.98
2019-05-15T06:24:38.385Z,11.82
2019-05-15T06:27:08.307Z,12.13
2019-05-15T06:29:37.973Z,12.25
2019-05-15T06:32:07.999Z,12.55
2019-05-15T06:34:38.086Z,12.56
2019-05-15T06:37:08.328Z,12.61
2019-05-15T06:39:39.582Z,12.75
2019-05-15T06:42:09.089Z,12.59
2019-05-15T06:44:38.916Z,12.72
2019-05-15T06:47:08.478Z,12.66
2019-05-15T06:49:37.991Z,12.57
2019-05-15T06:52:08.829Z,12.73
2019-05-15T06:54:38.466Z,12.87
2019-05-15T06:57:09.094Z,13.03
2019-05-15T06:59:39.067Z,13.18
2019-05-15T07:02:08.561Z,13.08
2019-05-15T07:04:38.515Z,13.15
2019-05-15T07:07:11.040Z,13.22
2019-05-15T07:09:39.255Z,13.38
2019-05-15T07:12:10.439Z,13.51
2019-05-15T07:14:40.425Z,13.50
2019-05-15T07:17:09.950Z,13.41
2019-05-15T07:19:39.539Z,13.43
2019-05-15T07:22:09.443Z,13.66
2019-05-15T07:24:39.024Z,13.76
2019-05-15T07:27:09.509Z,13.62
2019-05-15T07:29:39.022Z,13.63
2019-05-15T07:32:08.542Z,13.76
2019-05-15T07:34:38.110Z,13.88
2019-05-15T07:37:09.766Z,13.78
2019-05-15T07:39:38.770Z,13.64
2019-05-15T07:42:08.663Z,13.67
2019-05-15T07:44:39.012Z,13.69
2019-05-15T07:47:08.972Z,13.77
2019-05-15T07:49:38.982Z,13.46
2019-05-15T07:52:08.824Z,13.63
2019-05-15T07:54:38.499Z,13.72
2019-05-15T07:57:08.983Z,13.92
2019-05-15T07:59:38.818Z,14.03
2019-05-15T08:02:08.578Z,14.29
2019-05-15T08:04:38.232Z,14.29
2019-05-15T08:07:09.154Z,14.43
2019-05-15T08:09:39.190Z,14.08
2019-05-15T08:12:08.847Z,14.23
2019-05-15T08:14:38.860Z,13.89
2019-05-15T08:17:08.804Z,14.18
2019-05-15T08:19:38.611Z,14.55
2019-05-15T08:22:09.010Z,14.47
2019-05-15T08:24:39.269Z,14.47
2019-05-15T08:27:09.144Z,14.68
2019-05-15T08:29:38.634Z,14.79
2019-05-15T08:32:08.476Z,14.90
2019-05-15T08:34:39.017Z,15.06
2019-05-15T08:37:08.589Z,14.99
2019-05-15T08:39:38.279Z,15.32
2019-05-15T08:42:08.049Z,15.56
2019-05-15T08:44:38.699Z,15.55
2019-05-15T08:47:08.396Z,15.76
2019-05-15T08:49:40.898Z,15.36
2019-05-15T08:52:10.121Z,15.18
2019-05-15T08:54:41.071Z,15.05
2019-05-15T08:57:11.628Z,15.40
2019-05-15T08:59:41.195Z,15.03
2019-05-15T09:02:10.711Z,15.16
2019-05-15T09:04:40.214Z,15.61
2019-05-15T09:07:09.727Z,15.72
2019-05-15T09:09:39.223Z,15.76
2019-05-15T09:12:08.752Z,15.62
2019-05-15T09:14:38.312Z,15.54
2019-05-15T09:17:08.713Z,15.43
2019-05-15T09:19:38.770Z,15.65
2019-05-15T09:22:09.170Z,15.40
2019-05-15T09:24:38.811Z,15.53
2019-05-15T09:27:09.829Z,15.58
2019-05-15T09:29:40.598Z,15.62
2019-05-15T09:32:12.433Z,16.25
2019-05-15T09:34:50.732Z,16.21
2019-05-15T09:37:12.597Z,15.93
2019-05-15T09:39:42.103Z,16.07
2019-05-15T09:42:11.627Z,15.60
2019-05-15T09:44:41.136Z,16.04
2019-05-15T09:47:10.671Z,16.29
2019-05-15T09:49:40.164Z,15.67
2019-05-15T09:52:09.690Z,15.92
2019-05-15T09:54:40.197Z,15.99
2019-05-15T09:57:10.989Z,16.31
2019-05-15T09:59:40.719Z,16.44
2019-05-15T10:02:10.414Z,16.74
2019-05-15T10:04:40.794Z,16.88
2019-05-15T10:07:10.347Z,16.50
2019-05-15T10:09:39.846Z,16.69
2019-05-15T10:12:09.457Z,16.75
2019-05-15T10:14:39.054Z,16.47
2019-05-15T10:17:09.245Z,16.63
2019-05-15T10:19:38.855Z,16.92
2019-05-15T10:22:09.742Z,16.88
2019-05-15T10:24:39.308Z,16.89
2019-05-15T10:27:09.288Z,16.54
2019-05-15T10:29:38.917Z,16.22
2019-05-15T10:32:08.700Z,16.36
2019-05-15T10:34:38.767Z,16.43
2019-05-15T10:37:08.566Z,16.51
2019-05-15T10:39:38.547Z,16.81
2019-05-15T10:42:09.953Z,16.96
2019-05-15T10:44:39.667Z,17.05
2019-05-15T10:47:11.024Z,17.27
2019-05-15T10:49:40.520Z,17.50
2019-05-15T10:52:11.628Z,17.43
2019-05-15T10:54:41.302Z,17.61
2019-05-15T10:57:10.815Z,17.88
2019-05-15T10:59:40.793Z,17.85
2019-05-15T11:02:10.416Z,17.86
2019-05-15T11:04:39.935Z,17.59
2019-05-15T11:07:09.883Z,17.56
2019-05-15T11:09:40.593Z,18.05
2019-05-15T11:12:10.326Z,18.43
2019-05-15T11:14:39.843Z,18.42
2019-05-15T11:17:09.380Z,18.55
2019-05-15T11:19:40.489Z,18.53
2019-05-15T11:22:10.273Z,18.63
2019-05-15T11:24:39.804Z,17.35
2019-05-15T11:27:10.137Z,17.84
2019-05-15T11:29:39.810Z,16.72
2019-05-15T11:32:09.335Z,17.07
2019-05-15T11:34:38.857Z,16.85
2019-05-15T11:37:08.360Z,16.67
2019-05-15T11:39:45.835Z,16.96
2019-05-15T11:42:10.214Z,16.98
2019-05-15T11:44:39.804Z,17.16
2019-05-15T11:47:09.386Z,17.57
2019-05-15T11:49:38.972Z,17.59
2019-05-15T11:52:08.791Z,17.85
2019-05-15T11:54:38.680Z,17.56
2019-05-15T11:57:08.663Z,17.56
2019-05-15T11:59:44.818Z,17.85
2019-05-15T12:02:09.497Z,18.23
2019-05-15T12:04:39.004Z,18.36
2019-05-15T12:07:08.781Z,17.98
2019-05-15T12:09:38.834Z,18.31
2019-05-15T12:12:08.879Z,18.31
2019-05-15T12:14:38.949Z,18.28
2019-05-15T12:17:15.037Z,18.42
2019-05-15T12:19:39.863Z,18.16
2019-05-15T12:22:09.363Z,18.21
2019-05-15T12:24:40.665Z,18.15
2019-05-15T12:29:41.534Z,18.67
2019-05-15T12:34:42.252Z,18.54
2019-05-15T12:37:11.898Z,18.42
2019-05-15T12:39:23.744Z,18.83
2019-05-15T12:39:41.420Z,18.15
2019-05-15T12:59:49.451Z,17.92
2019-05-15T13:02:18.962Z,18.20
2019-05-15T13:04:49.375Z,18.48
2019-05-15T13:07:19.991Z,18.37
2019-05-15T13:09:49.587Z,18.39
2019-05-15T13:12:19.109Z,18.26
2019-05-15T13:14:48.617Z,18.44
2019-05-15T13:17:18.418Z,18.87
2019-05-15T13:19:48.372Z,19.09
2019-05-15T13:22:24.482Z,19.65
2019-05-15T13:24:50.254Z,20.03
2019-05-15T13:27:19.826Z,19.93
2019-05-15T13:29:49.459Z,19.46
2019-05-15T13:32:19.024Z,18.78
2019-05-15T13:34:49.056Z,18.32
2019-05-15T13:37:26.832Z,18.65
2019-05-15T13:39:49.835Z,18.75
2019-05-15T13:42:19.330Z,18.38
2019-05-15T13:44:48.839Z,18.19
2019-05-15T13:47:18.357Z,18.54
2019-05-15T13:49:48.149Z,18.45
2019-05-15T13:52:18.798Z,18.19
2019-05-15T13:54:48.491Z,18.07
2019-05-15T13:57:18.182Z,18.68
2019-05-15T13:59:48.346Z,18.91
2019-05-15T14:02:18.699Z,18.42
2019-05-15T14:04:49.348Z,18.48
2019-05-15T14:07:19.347Z,18.30
2019-05-15T14:09:49.553Z,18.89
2019-05-15T14:12:19.305Z,19.35
2019-05-15T14:14:49.792Z,19.21
2019-05-15T14:17:19.317Z,19.23
2019-05-15T14:19:48.830Z,19.10
2019-05-15T14:22:18.322Z,18.75
2019-05-15T14:24:48.930Z,18.75
2019-05-15T14:27:19.508Z,18.93
2019-05-15T14:29:49.222Z,18.47
2019-05-15T14:32:34.010Z,18.94
2019-05-15T14:34:51.055Z,18.78
2019-05-15T14:37:20.781Z,18.60
2019-05-15T14:39:52.335Z,18.61
2019-05-15T14:42:21.800Z,18.46
2019-05-15T14:44:51.587Z,18.35
2019-05-15T14:47:21.124Z,18.21
2019-05-15T14:49:50.640Z,18.08
2019-05-15T14:52:20.211Z,17.95
2019-05-15T14:54:49.746Z,18.30
2019-05-15T14:57:19.269Z,18.47
2019-05-15T14:59:49.004Z,18.48
2019-05-15T15:02:19.031Z,18.60
2019-05-15T15:04:48.779Z,18.36
2019-05-15T15:07:18.839Z,18.30
2019-05-15T15:09:48.556Z,18.34
2019-05-15T15:12:18.939Z,18.46
2019-05-15T15:14:48.678Z,18.61
2019-05-15T15:17:19.594Z,18.62
2019-05-15T15:19:52.055Z,18.33
2019-05-15T15:22:21.624Z,17.98
2019-05-15T15:24:51.082Z,18.18
2019-05-15T15:27:20.635Z,18.28
2019-05-15T15:29:50.176Z,18.46
2019-05-15T15:32:19.691Z,18.51
2019-05-15T15:34:49.253Z,18.25
2019-05-15T15:37:18.783Z,18.27
2019-05-15T15:39:48.321Z,18.31
2019-05-15T15:42:17.980Z,18.24
2019-05-15T15:44:48.860Z,18.11
2019-05-15T15:47:18.426Z,18.39
2019-05-15T15:49:48.034Z,18.03
2019-05-15T15:52:18.125Z,18.51
2019-05-15T15:54:47.828Z,18.50
2019-05-15T15:57:19.195Z,17.95
2019-05-15T15:59:49.123Z,18.15
2019-05-15T16:02:18.821Z,18.18
2019-05-15T16:04:48.483Z,17.88
2019-05-15T16:07:18.026Z,18.02
2019-05-15T16:09:48.339Z,17.97
2019-05-15T16:12:18.618Z,17.75
2019-05-15T16:14:48.813Z,18.20
2019-05-15T16:17:19.387Z,18.36
2019-05-15T16:19:49.216Z,18.53
2019-05-15T16:22:19.062Z,18.15
2019-05-15T16:24:49.254Z,18.49
2019-05-15T16:27:18.786Z,18.43
2019-05-15T16:29:48.311Z,18.29
2019-05-15T16:32:21.088Z,18.43
2019-05-15T16:34:49.078Z,18.67
2019-05-15T16:37:18.877Z,18.55
2019-05-15T16:39:48.829Z,18.51
2019-05-15T16:42:18.310Z,18.27
2019-05-15T16:44:48.978Z,18.24
2019-05-15T16:47:18.729Z,18.29
2019-05-15T16:49:49.154Z,18.51
2019-05-15T16:52:18.657Z,18.11
2019-05-15T16:54:48.958Z,18.05
2019-05-15T16:57:18.669Z,17.99
2019-05-15T16:59:48.219Z,17.95
2019-05-15T17:02:18.886Z,17.99
2019-05-15T17:04:48.919Z,17.99
2019-05-15T17:07:18.473Z,17.82
2019-05-15T17:09:48.181Z,17.77
2019-05-15T17:12:17.680Z,17.53
2019-05-15T17:14:48.707Z,17.80
2019-05-15T17:17:18.517Z,18.00
2019-05-15T17:19:48.505Z,17.94
2019-05-15T17:22:18.501Z,17.96
2019-05-15T17:24:48.827Z,18.13
2019-05-15T17:27:18.689Z,18.06
2019-05-15T17:29:48.987Z,17.50
2019-05-15T17:32:18.690Z,17.73
2019-05-15T17:34:48.818Z,17.67
2019-05-15T17:37:18.391Z,17.80
2019-05-15T17:39:48.570Z,17.70
2019-05-15T17:42:18.365Z,17.76
2019-05-15T17:44:48.748Z,17.59
2019-05-15T17:47:18.390Z,17.39
2019-05-15T17:49:48.211Z,17.29
2019-05-15T17:52:18.360Z,17.39
2019-05-15T17:54:49.150Z,17.57
2019-05-15T17:57:19.473Z,17.16
2019-05-15T17:59:49.116Z,17.19
2019-05-15T18:02:19.087Z,17.41
2019-05-15T18:04:49.635Z,17.12
2019-05-15T18:07:19.129Z,16.58
2019-05-15T18:09:54.059Z,17.29
2019-05-15T18:12:20.012Z,17.24
2019-05-15T18:14:49.500Z,17.25
2019-05-15T18:17:19.019Z,16.90
2019-05-15T18:19:48.761Z,17.02
2019-05-15T18:22:19.271Z,17.11
2019-05-15T18:24:49.055Z,16.85
2019-05-15T18:27:18.717Z,16.91
2019-05-15T18:29:48.221Z,16.74
2019-05-15T18:32:18.963Z,16.70
2019-05-15T18:34:48.978Z,16.55
2019-05-15T18:37:19.204Z,16.63
2019-05-15T18:40:02.166Z,16.42
2019-05-15T18:42:20.201Z,16.24
2019-05-15T18:44:49.724Z,16.50
2019-05-15T18:47:19.236Z,16.58
2019-05-15T18:50:03.701Z,16.53
2019-05-15T18:52:20.983Z,16.50
2019-05-15T18:54:50.667Z,16.27
2019-05-15T18:57:20.171Z,16.32
2019-05-15T18:59:49.675Z,16.49
2019-05-15T19:02:19.300Z,16.20
2019-05-15T19:04:49.852Z,16.11
2019-05-15T19:07:19.348Z,16.01
2019-05-15T19:09:48.866Z,16.10
2019-05-15T19:12:19.047Z,16.27
2019-05-15T19:14:49.347Z,16.27
2019-05-15T19:17:19.084Z,16.25
2019-05-15T19:19:48.681Z,16.21
2019-05-15T19:22:19.308Z,16.08
2019-05-15T19:24:49.051Z,16.18
2019-05-15T19:27:18.844Z,16.18
2019-05-15T19:29:48.499Z,16.11
2019-05-15T19:32:18.001Z,15.93
2019-05-15T19:34:48.327Z,15.89
2019-05-15T19:37:18.486Z,15.90
2019-05-15T19:39:48.142Z,15.75
2019-05-15T19:42:18.265Z,15.46
2019-05-15T19:44:48.896Z,15.76
2019-05-15T19:47:18.687Z,15.82
2019-05-15T19:49:48.760Z,15.96
2019-05-15T19:52:18.266Z,16.05
2019-05-15T19:54:48.485Z,16.10
2019-05-15T19:57:18.704Z,15.89
2019-05-15T19:59:48.947Z,16.01
2019-05-15T20:02:18.621Z,15.97
2019-05-15T20:04:49.116Z,16.17
2019-05-15T20:07:19.635Z,16.22
2019-05-15T20:09:49.148Z,16.34
2019-05-15T20:12:18.761Z,16.49
2019-05-15T20:14:48.876Z,16.56
2019-05-15T20:17:18.503Z,16.45
2019-05-15T20:19:48.858Z,16.54
2019-05-15T20:22:18.832Z,16.35
2019-05-15T20:24:48.533Z,16.63
2019-05-15T20:27:18.774Z,16.72
2019-05-15T20:29:48.725Z,16.57
2019-05-15T20:32:18.516Z,16.47
2019-05-15T20:34:48.401Z,16.17
2019-05-15T20:37:19.082Z,16.17
2019-05-15T20:39:49.214Z,16.19
2019-05-15T20:42:18.955Z,16.19
2019-05-15T20:44:48.751Z,16.07
2019-05-15T20:47:18.759Z,16.04
2019-05-15T20:49:48.711Z,16.08
2019-05-15T20:52:21.501Z,16.05
2019-05-15T20:54:49.417Z,16.03
2019-05-15T20:57:18.899Z,16.08
2019-05-15T20:59:48.423Z,15.96
2019-05-15T21:02:18.742Z,15.77
2019-05-15T21:04:48.327Z,15.81
2019-05-15T21:07:27.586Z,15.80
2019-05-15T21:09:49.053Z,15.81
2019-05-15T21:12:18.578Z,15.89
2019-05-15T21:14:48.431Z,15.79
2019-05-15T21:17:19.880Z,15.81
2019-05-15T21:19:49.645Z,15.77
2019-05-15T21:22:20.053Z,15.88
2019-05-15T21:24:49.715Z,15.91
2019-05-15T21:27:24.181Z,15.82
2019-05-15T21:29:50.494Z,15.55
2019-05-15T21:32:20.276Z,15.48
2019-05-15T21:34:49.782Z,15.46
2019-05-15T21:37:19.277Z,15.38
2019-05-15T21:39:48.781Z,15.38
2019-05-15T21:42:19.262Z,15.44
2019-05-15T21:44:49.005Z,15.50
2019-05-15T21:47:18.897Z,15.53
2019-05-15T21:49:48.587Z,15.50
2019-05-15T21:52:20.493Z,15.54
2019-05-15T21:54:50.504Z,15.61
2019-05-15T21:57:32.919Z,15.73
2019-05-15T21:59:51.888Z,15.82
2019-05-15T22:02:21.381Z,15.46
2019-05-15T22:04:55.784Z,15.89
2019-05-15T22:07:22.372Z,15.87
2019-05-15T22:09:51.940Z,15.85
2019-05-15T22:12:21.439Z,15.82
2019-05-15T22:14:51.020Z,15.72
2019-05-15T22:17:20.672Z,15.45
2019-05-15T22:19:50.250Z,15.35
2019-05-15T22:22:19.720Z,15.21
2019-05-15T22:24:49.292Z,15.06
2019-05-15T22:27:21.022Z,15.10
2019-05-15T22:29:49.978Z,14.92
2019-05-15T22:32:19.669Z,14.76
2019-05-15T22:35:05.723Z,14.67
2019-05-15T22:37:21.654Z,14.64
2019-05-15T22:39:51.343Z,14.60
2019-05-15T22:42:20.833Z,14.52
2019-05-15T22:44:51.314Z,14.49
2019-05-15T22:47:20.822Z,14.49
2019-05-15T22:49:50.310Z,14.39
2019-05-15T22:52:20.087Z,14.40
2019-05-15T22:54:49.590Z,13.83
2019-05-15T22:57:19.091Z,14.33
2019-05-15T22:59:48.811Z,14.26
2019-05-15T23:02:18.404Z,14.41
2019-05-15T23:04:47.925Z,14.46
2019-05-15T23:07:18.916Z,14.26
2019-05-15T23:09:49.055Z,14.12
2019-05-15T23:12:18.656Z,14.04
2019-05-15T23:14:48.589Z,14.08
2019-05-15T23:17:18.152Z,14.09
2019-05-15T23:19:48.626Z,14.17
2019-05-15T23:22:18.628Z,14.30
2019-05-15T23:24:48.435Z,14.31
2019-05-15T23:27:18.203Z,14.29
2019-05-15T23:29:49.127Z,14.28
2019-05-15T23:32:18.823Z,14.31
2019-05-15T23:34:49.324Z,14.16
2019-05-15T23:37:19.833Z,14.16
2019-05-15T23:39:49.340Z,14.09
2019-05-15T23:42:18.856Z,14.03
2019-05-15T23:44:48.776Z,13.73
2019-05-15T23:47:18.383Z,13.47
2019-05-15T23:49:48.528Z,13.51
2019-05-15T23:52:18.068Z,13.56
2019-05-15T23:54:47.561Z,13.61
2019-05-15T23:57:18.022Z,13.37
2019-05-15T23:59:47.822Z,13.33
